Blue Horizons Flying Club, Inc.

Radar AviationWeather DUATS TFRs Wunderground Accuweather Weather.com

alt : Radar

TAFs

KCLE 290857Z 2909/3012 16012G20KT P6SM SCT050 OVC100
     TEMPO 2913/2916 -FZRA SCT012 OVC050
   FM291600 18014G20KT 5SM -FZRA BR OVC012
     TEMPO 2916/2918 3SM -RAPL OVC008
   FM291800 20012KT 1 1/2SM -SN OVC008
   FM300100 27014KT 4SM -SN BR OVC008
   FM300400 29015G25KT P6SM OVC015
KFWA 290853Z 2909/3006 17012G19KT P6SM -SHRA BKN070 WS020/20045KT
     TEMPO 2909/2910 -FZRA
   FM291300 20014KT 4SM BR VCSH OVC040
   FM291600 26012KT 4SM -RASN BR OVC009
   FM292000 30015G23KT P6SM OVC012
KDTW 290846Z 2909/3012 14007KT P6SM OVC100
   FM291000 15010KT P6SM -FZRAPL OVC070
   FM291130 16012KT P6SM OVC090
   FM291600 21010KT 4SM -SHRA BR BKN018 OVC035
   FM292000 29014G20KT 3SM -SHSN BKN009 OVC025
   FM292300 30015G25KT 6SM -SN BKN025 OVC040
   FM300300 31013G23KT P6SM SCT025 OVC040
KJXN 290820Z 2908/3006 17013G21KT P6SM BKN100 WS020/21050KT
   FM291000 17014KT 3SM -FZRAPL OVC015
   FM291200 21008KT 1SM -SNPL BR OVC009
   FM292000 31013G22KT 5SM -SHSN OVC015
KTOL 290528Z 2906/3006 15004KT P6SM OVC250
   FM291100 17012G16KT P6SM OVC050
     TEMPO 2912/2913 5SM -FZRA BR OVC012
   FM291300 19012G18KT 4SM -FZRA BR OVC012
     TEMPO 2914/2917 2SM -FZRAPL BR OVC008
   FM291700 23009KT 1 1/2SM -RA BR OVC007
   FM292000 28010G20KT 2SM -SN BR OVC007
   FM292200 29018G25KT 4SM -SN BR OVC015
   FM300400 29020G25KT P6SM BKN050
KFDY 290528Z 2906/3006 14012G20KT P6SM OVC250
   FM290900 14012KT P6SM OVC060
   FM291100 16014G22KT 6SM BR SCT012 OVC050
     TEMPO 2911/2913 5SM -FZRA BR OVC012
   FM291300 18015G25KT 4SM -FZRA BR OVC012
     TEMPO 2914/2917 2SM -FZRAPL BR OVC008
   FM291700 21012KT 2SM -RA BR OVC015
   FM291900 25012KT 2SM -RA BR OVC007
   FM292000 27015G25KT 4SM -SN BR OVC007
   FM292300 29015G25KT P6SM OVC015

METARs

KFWA 291010Z 17011KT 10SM OVC085 01/M04 A2982 RMK AO2 FZRAE0959FZDZB0959E09 P0000 I1000 T00111039
KJXN 290956Z 16011KT 10SM OVC040 M02/M06 A2984 RMK AO2 UPE24 SLP116 P0001 T10221056
KDUH 290955Z AUTO 14008KT 10SM SCT060 SCT070 BKN120 00/M07 A2990 RMK AO2
KDTW 290953Z 12008KT 10SM BKN060 OVC095 M02/M08 A2993 RMK AO2 SLP145 T10221078
KFDY 290953Z AUTO 15015G22KT 10SM OVC060 M01/M07 A2989 RMK AO2 SLP129 T10111067
KTDZ 290953Z AUTO 16012KT 10SM BKN060 OVC075 M01/M07 A2992 RMK AO2 SLP137 T10111072 TSNO
KTOL 290952Z VRB05KT 10SM SCT110 M02/M07 A2988 RMK AO2 PRESFR SLP128 T10221072
KCLE 290951Z 16017G22KT 10SM BKN100 M02/M11 A3001 RMK AO2 SLP172 T10221111

alt : Satellite

alt : TFRs